My Meet Scores
Skylar Davis, Flipstar Gymnastics Academy - MyMeetScores.com
Top100 | Top Teams | Upcoming Meets | Completed Meets | Latest | Add Scores | Help| Support | Bookmark and Share

Skylar Davis, Flipstar Gymnastics Academy
Personal Bests
LevelVault BarsBeamFloorAA
49.2509.600 9.2259.55037.225
57.7508.700 8.1508.55032.850
69.5259.450 9.1509.35037.225
79.4759.525 8.5509.32536.475
89.2259.350 8.7509.17536.425
Meet Scores
Date Meet Team Session Level Division Vault Bars Beam Floor AA
2019-04-26 Level 7/8 Region 5 Regionals Flipstar Gymnastics Academy 1B 8 SRE1 8.600 13 8.175 17T 8.300 22 8.950 20T 34.025 18
2019-03-29 Illinois Level 7 & 8 State Meet Flipstar Gymnastics Academy 3 8 Sr E 9.225 5 9.350 4T 8.750 16T 9.100 18 36.425 8T
2019-03-01 2019 MEGA Spring Invite Flipstar Gymnastics Academy All 8 All Ages 9.150 7 9.050 17 8.150 28 9.175 12T 35.525 18
2019-02-23 Kinetic Classic 2019 Flipstar Gymnastics Academy 1 8 Older 8.700 5 9.275 4 8.175 11T 8.425 12T 34.575 6
2019-02-08 Midwest Twisters Harley Meet Womens Flipstar Gymnastics Academy O06 8 15+ yrs. 8.725 2 8.025 4 8.000 8 9.100 3 33.850 2
2019-01-25 King Arthur Invitational Flipstar Gymnastics Academy 3 8 SR B 8.200 10T 8.750 4 0.000 15T 8.400 13 25.350 13
2019-01-11 Circle of Stars Gymnastics Flipstar Gymnastics Academy A11 8 Senior B 8.425 3 8.750 2 0.000 5 9.000 2 26.175 4
2018-12-07 Horton Invite Flipstar Gymnastics Academy All 7 Sr 9.450 1 9.300 2 8.400 10 9.325 4T 36.475 1
2018-03-23 Illinois Level 7 & 8 State Competition Flipstar Gymnastics Academy 06 7 Sr E 9.125 10 9.300 1 8.550 12 9.050 13T 36.025 3
2018-02-23 Kinetic Classic Flipstar Gymnastics Academy 1 7 Older 9.225 18T 9.525 6 8.250 63 9.050 40T 36.050 33T
2018-02-16 Big Classic Flipstar Gymnastics Academy 2A 7 Senior B 9.325 2 9.275 1 0.000 14T 9.125 10 27.725 14
2018-02-09 IGI Chicago Style Gymnastics Meet Flipstar Gymnastics Academy 16 7 413 Rush L7 C 9.275 15 9.350 3 0.000 9.000 17 27.625 17
2018-01-26 King Arthur Invitational Flipstar Gymnastics Academy 8 7 SR 9.475 5T 9.125 4T 8.300 10 8.775 6 35.675 5
2017-12-08 Horton Invite At IWU Shirk Center Flipstar Gymnastics Academy All 7 Sr 8.950 15 9.200 5 0.000 21 9.325 12 27.475 21
2017-11-17 SCGA Classic Flipstar Gymnastics Academy 3 7 JrB 9.325 3 9.000 2 0.000 9 8.725 8 27.050 7
2017-03-23 2017 Illinois Level 6, 7 State Championship Flipstar Gymnastics Academy 11 6 Sr D 9.525 2 9.200 2 9.150 12 9.350 5T 37.225 1
2017-02-24 Kinetic Classic Flipstar Gymnastics Academy 9 6 All Ages 9.300 6T 9.400 6T 8.775 44 9.050 34T 36.525 20
2017-02-17 Big Classic Flipstar Gymnastics Academy A 6 Junior C 9.250 5T 9.400 1 8.700 12T 9.225 8T 36.575 4
2017-02-10 IGI Chicago Style Gymnastics Meet Flipstar Gymnastics Academy 532W 6 SrB 9.100 8 9.350 1 0.000 9 0.000 9 18.450 19
2016-12-09 Horton Invitational Flipstar Gymnastics Academy 1 6 SrB 9.175 3 9.275 1 9.025 3 8.450 14 35.925 2
2016-04-01 2016 Illinois Level 6 & 7 State Championships Flipstar Gymnastics Academy 10 6 L6 Sr C 9.525 6T 9.450 2 8.375 32 9.250 24T 36.600 18
2016-02-20 Big Classic Flipstar Gymnastics Academy 9B 6 Junior C 8.950 12T 9.250 1T 8.975 10 8.850 16 36.025 8
2016-02-12 IGI Chicago Style Gymnastics Meet Flipstar Gymnastics Academy 532 6 SrB 9.150 8 9.225 2 9.150 11 8.900 16 36.425 6
2016-01-22 Sand Dollar/Whitlow Invitational Flipstar Gymnastics Academy E05 6 Sr B 9.025 5 9.275 1 7.900 11 8.375 11 34.575 9
2015-12-11 St. Nick Invite Flipstar Gymnastics Academy 7A 6 Senior 8.650 11 9.050 7 8.800 10T 8.550 14 35.050 12
2015-03-19 2015 Illinois Level 4 State Championship Flipstar Gymnastics Academy All 4 Sr.C 9.250 5 9.525 1 8.900 19 9.550 2 37.225 3
2015-02-27 Elk Grove Gymnastics Invite Flipstar Gymnastics Academy 3 4 11yrs. 9.025 4 9.325 2 8.975 5 9.125 3 36.450 2T
2015-02-21 BIG Classic Flipstar Gymnastics Academy 6A 4 Junior A 8.550 9 9.450 2 9.225 8 8.800 6 36.025 4
2015-02-13 IGI Chicago Style Gymnastics Meet Flipstar Gymnastics Academy 633 4 11 & Older 8.725 14T 9.400 10T 9.175 14 8.850 24T 36.150 15
2015-01-23 King Arthur Invitational Flipstar Gymnastics Academy 5 4 SrB 8.600 6 9.250 1 8.900 6 8.950 7 35.700 4
2014-11-07 Illinois Judges Cup 2014 Flipstar Gymnastics Academy B4 4 11 and Ove 8.675 7 9.600 1 7.850 16 8.950 1T 35.075 2T
2014-03-13 2014 Illinois Level 4 State Meet Flipstar Gymnastics Academy 4 Sr.A 8.400 31 9.200 9 8.550 25 8.725 31 34.875 22
2014-02-21 EGGS Invite Flipstar Gymnastics Academy 1 4 10yrs 8.050 14T 8.450 7 8.600 12 8.700 11 33.800 11
2014-02-15 BIG Dream Classic 2014 Flipstar Gymnastics Academy 1A 4 Junior A 8.075 20 8.750 11T 8.450 19 8.300 17 33.575 19
2014-02-07 IGI Chicago Style Gymnastics Meet Flipstar Gymnastics Academy 633 4 10 Yr Olds 8.075 20 9.125 8T 7.750 25 8.550 17T 33.500 14
2013-03-08 LGA Lucky Invite I Flip N Dance B8 5 9 7.600 12 8.550 10 8.150 10 8.550 9 32.850 13
2013-02-22 Midwest Open 2013 I Flip N Dance 8B 5 10 7.650 26 7.875 20 7.200 26 7.900 24 30.625 24
2013-02-15 Buckeye Classic I Flip N Dance F3N 5 Child C 7.150 15 8.425 8 6.600 15 7.700 14 29.875 15
2013-02-08 IGI Chicago Style Gymnastics Meet I Flip N Dance 623 5 10 Yr Olds 7.750 22 8.700 15 7.575 23 8.150 20T 32.175 21
2013-01-25 Sand Dollar Whitlow Invitational I Flip N Dance E08 5 Jr. B 7.050 10 7.925 8 7.025 10 7.100 10 29.100 10
2013-01-11 Circle Of Stars I Flip N Dance 5 9 6.975 22 8.300 13 0.000 22 8.350 21 23.625 22
2012-12-13 2012 Hawaiin Pineapple Classic I Flip N Dance B5 5 age 10 7.500 20 8.000 13 0.000 21 7.150 21 22.650 21
2012-11-09 2012 Illinois Judges Cup I Flip N Dance 5B 4 9 8.100 19 8.650 12 7.400 18 8.450 15 32.600 15
Get your scores on
a t-shirt, pin, or hoodie

www.lazysuits.com